Marion, South Carolina
Current Conditions -  °F | °C
As of 3:15 PM on Sunday 23 Nov 2014 (Local Time) from KMAO Reporting Station
Drizzle Drizzle  
Wind Chill: 63°   Ceiling: 900
Heat Index: 63°   Visibility: 5mi
Dew Point: 63°   Wind: 6mph
Humidity: 100%   Direction: 130°SE
Pressure: 29.99"   Gusts: NA
Location:  34.18°N, 79.4°W
Report Text: KMAO 232015Z AUTO 13005KT 5SM DZ OVC009 17/17 A2999 RMK AO2 P0001
Loading
Personal Weather Stations






























Interactive Weather Map New forecast layout! Learn more

10-Day Weather Forecast

Advertisements
Track Severe Weather on mobile